Time;durP1;ratioP1;P1;durP2;ratioP2;P2;SDS_P1;SDS_P2;PMS_P1;PMS_P2;Temp;Humidity;BMP_temperature;BMP_pressure;BME280_temperature;BME280_humidity;BME280_pressure;Samples;Min_cycle;Max_cycle;Signal;HPM_P1;HPM_P2
2023/02/15 00:01:37;;;;;;;;;144.25;111.25;;;;;-1.11;100.00;101247.44;6285188;20;3719045;-61
2023/02/15 00:04:09;;;;;;;;;129.67;99.00;;;;;-1.25;100.00;101249.00;6280598;20;3702414;-61
2023/02/15 00:06:38;;;;;;;;;122.00;104.33;;;;;-1.47;100.00;101257.53;6284627;20;3704412;-61
2023/02/15 00:09:11;;;;;;;;;122.33;95.67;;;;;-1.43;100.00;101251.41;6278920;20;3709625;-60
2023/02/15 00:11:43;;;;;;;;;118.25;92.00;;;;;-1.57;100.00;101253.88;6276888;20;3706520;-61
2023/02/15 00:14:20;;;;;;;;;108.00;78.67;;;;;-2.15;100.00;101256.56;6281715;20;3685088;-61
2023/02/15 00:16:52;;;;;;;;;122.00;97.33;;;;;-2.50;100.00;101256.88;6294369;20;3712779;-61
2023/02/15 00:19:22;;;;;;;;;119.67;92.00;;;;;-2.26;100.00;101250.25;6280009;20;3699224;-61
2023/02/15 00:21:52;;;;;;;;;108.00;80.33;;;;;-2.29;100.00;101255.44;6282569;20;3673267;-61
2023/02/15 00:24:22;;;;;;;;;116.67;87.33;;;;;-2.09;100.00;101248.75;6311661;20;3687923;-61
2023/02/15 00:26:52;;;;;;;;;111.00;88.67;;;;;-1.84;100.00;101244.75;6282819;20;3693076;-61
2023/02/15 00:29:22;;;;;;;;;109.67;88.33;;;;;-1.59;100.00;101240.69;6284727;20;3696119;-61
2023/02/15 00:31:52;;;;;;;;;126.00;100.00;;;;;-1.41;100.00;101245.31;6283344;20;3703401;-61
2023/02/15 00:34:26;;;;;;;;;133.67;99.00;;;;;-1.25;100.00;101245.50;6282294;20;3710712;-61
2023/02/15 00:36:57;;;;;;;;;112.67;93.00;;;;;-1.40;100.00;101251.47;6283139;20;3701688;-61
2023/02/15 00:39:27;;;;;;;;;115.00;95.33;;;;;-1.29;100.00;101255.13;6277252;20;3702324;-61
2023/02/15 00:41:56;;;;;;;;;117.67;95.67;;;;;-1.26;100.00;101256.88;6282138;20;3684629;-61
2023/02/15 00:44:26;;;;;;;;;111.33;96.33;;;;;-1.46;100.00;101248.75;6279646;20;3676324;-61
2023/02/15 00:46:56;;;;;;;;;124.33;102.33;;;;;-1.75;100.00;101254.53;6282540;20;3709623;-61
2023/02/15 00:49:25;;;;;;;;;137.00;108.33;;;;;-1.73;100.00;101252.78;6281514;20;3707550;-61
2023/02/15 00:51:55;;;;;;;;;121.33;96.67;;;;;-1.66;100.00;101245.84;6282544;20;3698249;-61
2023/02/15 00:54:25;;;;;;;;;137.67;109.00;;;;;-1.47;100.00;101252.28;6282957;20;3709755;-61
2023/02/15 00:56:55;;;;;;;;;108.00;81.33;;;;;-1.49;100.00;101256.63;6282380;20;3676295;-61
2023/02/15 00:59:24;;;;;;;;;117.00;94.33;;;;;-1.40;100.00;101256.72;6311916;20;3697137;-61
2023/02/15 01:01:54;;;;;;;;;115.67;86.67;;;;;-1.46;100.00;101261.94;6283070;20;3697120;-61
2023/02/15 01:04:24;;;;;;;;;112.00;90.67;;;;;-1.46;100.00;101251.38;6280265;20;3693070;-61
2023/02/15 01:06:53;;;;;;;;;122.33;104.33;;;;;-1.43;100.00;101257.56;6281474;20;3702371;-61
2023/02/15 01:09:23;;;;;;;;;121.00;102.67;;;;;-1.34;100.00;101267.38;6278258;20;3695079;-61
2023/02/15 01:11:53;;;;;;;;;115.00;97.00;;;;;-1.71;100.00;101261.59;6279825;20;3705499;-61
2023/02/15 01:14:23;;;;;;;;;114.00;96.67;;;;;-1.40;100.00;101259.38;6282695;20;3695070;-61
2023/02/15 01:16:52;;;;;;;;;109.67;101.33;;;;;-1.50;100.00;101257.47;6282748;20;3667051;-61
2023/02/15 01:19:22;;;;;;;;;119.67;92.33;;;;;-1.58;100.00;101255.66;6280306;20;3702426;-61
2023/02/15 01:21:52;;;;;;;;;116.67;101.33;;;;;-1.46;100.00;101251.38;6278990;20;3698200;-61
2023/02/15 01:24:21;;;;;;;;;121.33;98.67;;;;;-1.52;100.00;101252.19;6285426;20;3683622;-61
2023/02/15 01:26:51;;;;;;;;;127.33;99.67;;;;;-1.56;100.00;101250.38;6287558;20;3716012;-61
2023/02/15 01:29:21;;;;;;;;;119.33;99.00;;;;;-1.60;100.00;101240.69;6286814;20;3698323;-61
2023/02/15 01:31:51;;;;;;;;;127.00;102.33;;;;;-1.78;100.00;101243.94;6287120;20;3698188;-61
2023/02/15 01:34:20;;;;;;;;;127.00;102.33;;;;;-1.52;100.00;101238.16;6284705;20;3700696;-61
2023/02/15 01:36:50;;;;;;;;;126.00;100.00;;;;;-1.58;100.00;101238.94;6285800;20;3698179;-60
2023/02/15 01:39:20;;;;;;;;;103.67;89.00;;;;;-1.91;100.00;101232.38;6282030;20;3672133;-61
2023/02/15 01:41:50;;;;;;;;;132.00;106.00;;;;;-1.96;100.00;101234.03;6286048;20;3703394;-61
2023/02/15 01:44:48;;;;;;;;;125.00;100.33;;;;;-2.02;100.00;101237.47;6285889;20;3695033;-61
2023/02/15 01:47:53;;;;;;;;;114.67;94.67;;;;;-1.94;100.00;101234.06;6285209;20;3688792;-61
2023/02/15 01:50:41;;;;;;;;;102.00;75.00;;;;;-2.10;100.00;101233.84;6284197;20;3678393;-61
2023/02/15 01:53:25;;;;;;;;;133.00;101.67;;;;;-2.23;100.00;101229.25;6280957;20;3718039;-61
2023/02/15 01:56:25;;;;;;;;;114.67;97.00;;;;;-2.12;100.00;101227.66;6285645;20;3693054;-61
2023/02/15 01:58:58;;;;;;;;;119.67;98.33;;;;;-2.07;100.00;101226.00;6284083;20;3692035;-61
2023/02/15 02:01:28;;;;;;;;;127.00;94.67;;;;;-1.75;100.00;101232.59;6282885;20;3692988;-61
2023/02/15 02:04:38;;;;;;;;;117.00;84.00;;;;;-1.86;100.00;101230.69;6283464;20;3684650;-61
2023/02/15 02:07:10;;;;;;;;;116.00;91.00;;;;;-1.59;100.00;101229.28;6279676;20;3691909;-61
2023/02/15 02:09:40;;;;;;;;;110.67;87.00;;;;;-1.70;100.00;101220.38;6283235;20;3690867;-61
2023/02/15 02:12:10;;;;;;;;;111.33;89.67;;;;;-1.66;100.00;101222.16;6285855;20;3699202;-61
2023/02/15 02:14:41;;;;;;;;;108.33;87.33;;;;;-1.69;100.00;101224.75;6284792;20;3687758;-61
2023/02/15 02:17:39;;;;;;;;;80.33;51.67;;;;;-1.59;100.00;101221.38;6280584;20;2904652;-61
2023/02/15 02:20:45;;;;;;;;;108.00;83.33;;;;;-1.94;100.00;101213.03;6316011;20;3694026;-61
2023/02/15 02:23:33;;;;;;;;;117.33;98.67;;;;;-2.25;100.00;101209.94;6283250;20;3706523;-61
2023/02/15 02:26:57;;;;;;;;;112.33;89.00;;;;;-2.12;100.00;101216.25;6284553;20;3696128;-61
2023/02/15 02:30:25;;;;;;;;;108.33;84.00;;;;;-2.18;100.00;101214.44;6284019;20;3688821;-61
2023/02/15 02:33:28;;;;;;;;;107.00;76.00;;;;;-2.12;100.00;101216.25;6283785;20;3706587;-61
2023/02/15 02:36:20;;;;;;;;;115.00;88.00;;;;;-2.23;100.00;101213.47;6312708;20;2738813;-61
2023/02/15 02:39:04;;;;;;;;;104.33;75.67;;;;;-2.02;100.00;101216.41;6284466;20;2913891;-61
2023/02/15 02:42:08;;;;;;;;;114.33;91.67;;;;;-2.19;100.00;101217.03;6317805;20;3687786;-61
2023/02/15 02:44:54;;;;;;;;;103.67;76.33;;;;;-2.31;100.00;101221.25;6280800;20;3678388;-61
2023/02/15 02:47:38;;;;;;;;;105.00;76.00;;;;;-2.19;100.00;101220.53;6314468;20;3672152;-61
2023/02/15 02:50:21;;;;;;;;;41.00;11.00;;;;;-2.31;100.00;101226.50;6316876;20;2844012;-61
2023/02/15 02:52:55;;;;;;;;;103.67;74.00;;;;;-2.59;100.00;101224.28;6284728;20;3669038;-61
2023/02/15 02:55:48;;;;;;;;;108.67;83.33;;;;;-2.47;100.00;101217.50;6311276;20;3665936;-60
2023/02/15 02:58:42;;;;;;;;;157.00;124.75;;;;;-2.57;100.00;101218.19;6313303;20;3732617;-61
2023/02/15 03:01:28;;;;;;;;;116.00;100.33;;;;;-2.43;100.00;101227.19;6311409;20;3682586;-61
2023/02/15 03:04:10;;;;;;;;;135.67;107.33;;;;;-2.63;100.00;101223.38;6277682;20;3701263;-61
2023/02/15 03:06:57;;;;;;;;;114.67;90.33;;;;;-2.53;100.00;101222.63;6277575;20;3705504;-61
2023/02/15 03:09:44;;;;;;;;;117.00;97.00;;;;;-2.36;100.00;101222.91;6279273;20;3694003;-61
2023/02/15 03:12:32;;;;;;;;;114.67;95.67;;;;;-2.48;100.00;101233.22;6278560;20;3703421;-61
2023/02/15 03:15:05;;;;;;;;;115.00;91.67;;;;;-2.59;100.00;101226.91;6277526;20;3698314;-61
2023/02/15 03:17:42;;;;;;;;;109.67;85.33;;;;;-2.46;100.00;101234.16;6283816;20;3691058;-61
2023/02/15 03:20:31;;;;;;;;;106.00;77.00;;;;;-2.29;100.00;101234.41;6280182;20;2792080;-61
2023/02/15 03:23:13;;;;;;;;;107.00;86.00;;;;;-2.20;100.00;101224.03;6282242;20;3683788;-61
2023/02/15 03:26:00;;;;;;;;;111.67;87.00;;;;;-2.34;100.00;101225.56;6281114;20;3701412;-61
2023/02/15 03:28:45;;;;;;;;;112.33;87.00;;;;;-2.34;100.00;101236.06;6283864;20;3705454;-61
2023/02/15 03:31:17;;;;;;;;;101.67;78.33;;;;;-2.42;100.00;101225.47;6278915;20;3683661;-61
2023/02/15 03:33:59;;;;;;;;;103.67;75.67;;;;;-2.03;100.00;101237.44;6313151;20;3673209;-61
2023/02/15 03:36:50;;;;;;;;;99.33;74.67;;;;;-2.07;100.00;101241.78;6277671;20;3662764;-61
2023/02/15 03:39:44;;;;;;;;;102.33;74.00;;;;;-2.02;100.00;101242.72;6314584;20;3661759;-60
2023/02/15 03:42:32;;;;;;;;;100.00;75.00;;;;;-2.26;100.00;101238.00;6281712;20;3648216;-61
2023/02/15 03:45:15;;;;;;;;;100.33;71.00;;;;;-2.28;100.00;101231.81;6312672;20;3664210;-61
2023/02/15 03:47:50;;;;;;;;;90.00;68.67;;;;;-2.05;100.00;101233.91;6312796;20;3651332;-61
2023/02/15 03:53:27;;;;;;;;;101.33;72.00;;;;;-2.24;100.00;101236.28;6313701;20;3673169;-61
2023/02/15 03:55:56;;;;;;;;;101.33;75.33;;;;;-2.19;100.00;101235.44;6313269;20;3670072;-61
2023/02/15 04:04:26;;;;;;;;;99.00;72.00;;;;;-2.26;100.00;101239.75;6313129;20;3664961;-61
2023/02/15 04:06:56;;;;;;;;;104.00;75.33;;;;;-2.28;100.00;101236.19;6312984;20;3670034;-61
2023/02/15 04:12:14;;;;;;;;;105.00;76.67;;;;;-2.79;100.00;101237.06;6279546;20;3669043;-62
2023/02/15 04:17:32;;;;;;;;;106.67;78.00;;;;;-2.93;100.00;101239.47;6283704;20;3679482;-61
2023/02/15 04:25:37;;;;;;;;;105.33;76.00;;;;;-2.74;100.00;101228.44;6314632;20;3686692;-61
2023/02/15 04:28:07;;;;;;;;;105.00;77.00;;;;;-2.58;100.00;101234.84;6279855;20;3687031;-61
2023/02/15 04:30:37;;;;;;;;;105.33;77.00;;;;;-2.80;100.00;101227.44;6314151;20;3689315;-61
2023/02/15 04:33:07;;;;;;;;;102.33;76.00;;;;;-2.88;100.00;101228.16;6278190;20;3671108;-61
2023/02/15 04:35:36;;;;;;;;;106.33;78.00;;;;;-2.75;100.00;101228.41;6314735;20;3682531;-61
2023/02/15 04:38:06;;;;;;;;;109.00;80.67;;;;;-2.79;100.00;101230.09;6281411;20;3679468;-61
2023/02/15 04:40:36;;;;;;;;;105.67;78.33;;;;;-2.88;100.00;101227.28;6314339;20;3675291;-61
2023/02/15 04:43:05;;;;;;;;;112.67;85.33;;;;;-2.66;100.00;101228.53;6275530;20;3684830;-61
2023/02/15 04:45:35;;;;;;;;;119.33;94.00;;;;;-2.74;100.00;101238.03;6282552;20;3708620;-61
2023/02/15 04:48:04;;;;;;;;;114.00;86.00;;;;;-2.81;100.00;101233.56;6283042;20;3682599;-61
2023/02/15 04:50:34;;;;;;;;;113.67;89.33;;;;;-2.95;100.00;101235.91;6314045;20;3685738;-61
2023/02/15 04:53:04;;;;;;;;;114.67;88.67;;;;;-2.99;100.00;101232.34;6281999;20;3686842;-61
2023/02/15 04:55:33;;;;;;;;;114.33;85.33;;;;;-2.75;100.00;101234.53;6279281;20;3687783;-61
2023/02/15 04:58:03;;;;;;;;;113.33;85.33;;;;;-2.80;100.00;101233.56;6282316;20;3695236;-61
2023/02/15 05:00:33;;;;;;;;;112.33;79.67;;;;;-2.79;100.00;101235.34;6282968;20;3682597;-61
2023/02/15 05:03:03;;;;;;;;;114.00;81.67;;;;;-2.80;100.00;101224.81;6286017;20;3678415;-61
2023/02/15 05:05:32;;;;;;;;;107.67;79.33;;;;;-2.92;100.00;101236.88;6283225;20;3669043;-61
2023/02/15 05:08:02;;;;;;;;;109.00;77.00;;;;;-2.76;100.00;101226.63;6318270;20;3672220;-61
2023/02/15 05:10:32;;;;;;;;;108.00;74.67;;;;;-2.87;100.00;101227.34;6284694;20;3679412;-61
2023/02/15 05:13:01;;;;;;;;;105.33;74.33;;;;;-2.84;100.00;101229.13;6318072;20;3661084;-61
2023/02/15 05:15:31;;;;;;;;;106.67;75.67;;;;;-2.73;100.00;101231.94;6312747;20;3675266;-61
2023/02/15 05:18:01;;;;;;;;;101.67;77.00;;;;;-2.83;100.00;101235.28;6318002;20;3677342;-61
2023/02/15 05:20:31;;;;;;;;;111.00;77.00;;;;;-3.00;100.00;101243.72;6318605;20;3668994;-61
2023/02/15 05:23:00;;;;;;;;;109.00;80.00;;;;;-3.16;100.00;101236.41;6318699;20;3676526;-61
2023/02/15 05:28:21;;;;;;;;;114.67;88.67;;;;;-3.55;100.00;101255.78;6284973;20;3686836;-61
2023/02/15 05:31:04;;;;;;;;;118.33;101.33;;;;;-3.39;100.00;101255.22;6285720;20;3697151;-61
2023/02/15 05:33:34;;;;;;;;;125.67;96.67;;;;;-3.28;100.00;101257.19;6288430;20;3703520;-61
2023/02/15 05:36:06;;;;;;;;;144.00;109.00;;;;;-3.29;100.00;101255.41;6286251;20;3711745;-61
2023/02/15 05:38:37;;;;;;;;;125.00;103.00;;;;;-3.32;100.00;101259.75;6280190;20;3696124;-61
2023/02/15 05:41:10;;;;;;;;;118.33;88.00;;;;;-3.36;100.00;101264.91;6283566;20;3695043;-61
2023/02/15 05:43:40;;;;;;;;;113.67;88.00;;;;;-3.33;100.00;101271.09;6284745;20;3720040;-61
2023/02/15 05:46:11;;;;;;;;;114.00;86.67;;;;;-3.60;100.00;101275.78;6284727;20;3687753;-61
2023/02/15 05:48:40;;;;;;;;;133.00;99.67;;;;;-3.09;100.00;101275.06;6279698;20;3712763;-61
2023/02/15 05:51:13;;;;;;;;;138.67;107.67;;;;;-3.15;100.00;101274.97;6269578;20;3710840;-60
2023/02/15 05:53:43;;;;;;;;;116.00;91.00;;;;;-3.30;100.00;101278.16;6279388;20;3693121;-61
2023/02/15 05:56:13;;;;;;;;;127.33;101.33;;;;;-3.38;100.00;101283.25;6282060;20;3721084;-60
2023/02/15 05:58:43;;;;;;;;;131.00;101.67;;;;;-3.27;100.00;101290.47;6286328;20;3703413;-61
2023/02/15 06:01:17;;;;;;;;;115.67;85.00;;;;;-2.96;100.00;101286.72;6279226;20;3697131;-61
2023/02/15 06:03:47;;;;;;;;;116.00;84.33;;;;;-3.23;100.00;101287.06;6285024;20;3697683;-60
2023/02/15 06:06:17;;;;;;;;;114.33;88.67;;;;;-2.99;100.00;101292.78;6283242;20;3686841;-61
2023/02/15 06:08:46;;;;;;;;;119.00;98.00;;;;;-2.88;100.00;101291.25;6311862;20;3692011;-60
2023/02/15 06:11:16;;;;;;;;;112.00;91.33;;;;;-2.67;100.00;101287.25;6284165;20;3676353;-60
2023/02/15 06:13:46;;;;;;;;;125.67;99.00;;;;;-2.87;100.00;101287.78;6280197;20;3712796;-61
2023/02/15 06:16:15;;;;;;;;;112.33;89.33;;;;;-2.75;100.00;101286.22;6283571;20;3695076;-61
2023/02/15 06:18:45;;;;;;;;;117.67;87.33;;;;;-2.52;100.00;101286.66;6283991;20;3707594;-61
2023/02/15 06:21:15;;;;;;;;;105.00;84.67;;;;;-2.35;100.00;101286.91;6282412;20;3682711;-61
2023/02/15 06:23:44;;;;;;;;;92.00;66.33;;;;;-2.40;100.00;101284.22;6277040;20;3637790;-61
2023/02/15 06:26:14;;;;;;;;;116.33;102.67;;;;;-2.29;100.00;101287.00;6285116;20;3702373;-61
2023/02/15 06:28:43;;;;;;;;;138.00;103.33;;;;;-1.13;100.00;101293.97;6283468;20;3709690;-61
2023/02/15 06:31:13;;;;;;;;;121.67;100.67;;;;;0.90;91.68;101295.59;6282309;20;3690964;-61
2023/02/15 06:33:43;;;;;;;;;123.33;99.67;;;;;1.80;84.11;101302.81;6282196;20;3697142;-61
2023/02/15 06:36:13;;;;;;;;;116.00;99.33;;;;;1.73;80.98;101303.69;6283634;20;3697716;-61
2023/02/15 06:38:43;;;;;;;;;137.75;112.50;;;;;1.71;82.10;101310.75;6282343;20;4496243;-61
2023/02/15 06:41:13;;;;;;;;;118.67;102.67;;;;;1.50;82.39;101306.31;6284869;20;3710706;-61
2023/02/15 06:43:42;;;;;;;;;120.00;98.33;;;;;2.27;81.95;101306.34;6285529;20;3678509;-61
2023/02/15 06:46:12;;;;;;;;;115.00;95.33;;;;;2.95;78.42;101307.91;6284391;20;3688981;-61
2023/02/15 06:48:43;;;;;;;;;121.00;108.00;;;;;1.75;82.07;101304.59;6280874;20;3708662;-62
2023/02/15 06:51:13;;;;;;;;;129.00;108.25;;;;;3.27;78.37;101313.06;6280163;20;4473274;-62
2023/02/15 06:53:43;;;;;;;;;100.33;80.67;;;;;2.83;78.19;101311.47;6316959;20;3679412;-62
2023/02/15 06:56:13;;;;;;;;;100.67;78.33;;;;;3.36;76.71;101317.44;6280844;20;3683612;-61
2023/02/15 06:58:45;;;;;;;;;98.67;83.00;;;;;2.90;75.05;101319.41;6283308;20;3674286;-62
2023/02/15 07:01:15;;;;;;;;;99.33;85.00;;;;;4.10;72.46;101315.13;6282604;20;3690927;-62
2023/02/15 07:03:45;;;;;;;;;101.67;87.33;;;;;4.57;70.63;101319.09;6281922;20;3693285;-62
2023/02/15 07:06:15;;;;;;;;;106.00;93.00;;;;;5.62;66.33;101312.44;6283828;20;3662789;-60
2023/02/15 07:08:44;;;;;;;;;113.33;92.67;;;;;5.55;64.82;101313.44;6283674;20;3684808;-61
2023/02/15 07:14:02;;;;;;;;;99.00;86.00;;;;;6.56;62.79;101309.13;6284271;20;4445121;-61
2023/02/15 07:16:30;;;;;;;;;111.50;86.00;;;;;6.65;61.77;101324.94;6312380;20;1944068;-61
2023/02/15 07:18:59;;;;;;;;;102.00;88.33;;;;;6.77;61.61;101316.72;6278085;20;3688914;-61
2023/02/15 07:21:27;;;;;;;;;136.00;117.00;;;;;9.49;53.92;101327.75;6274857;20;1950391;-61
2023/02/15 07:23:58;;;;;;;;;102.67;89.00;;;;;6.89;60.26;101330.72;6281337;20;3684701;-61
2023/02/15 07:26:28;;;;;;;;;105.00;89.33;;;;;6.83;61.05;101321.03;6279881;20;3694012;-61
2023/02/15 07:28:58;;;;;;;;;93.00;84.00;;;;;7.39;61.62;101329.66;6285965;20;3662802;-61
2023/02/15 07:31:28;;;;;;;;;107.67;87.00;;;;;6.78;63.18;101321.13;6312308;20;3680488;-61
2023/02/15 07:33:57;;;;;;;;;102.67;94.00;;;;;8.05;59.87;101314.72;6284059;20;3672143;-61
2023/02/15 07:36:27;;;;;;;;;92.67;71.67;;;;;8.55;58.05;101323.28;6283517;20;3681628;-61
2023/02/15 07:38:57;;;;;;;;;89.33;79.33;;;;;7.38;61.61;101319.00;6285238;20;3648220;-61
2023/02/15 07:41:25;;;;;;;;;88.33;66.33;;;;;3.24;78.88;101305.13;6277751;20;3664863;-61
2023/02/15 07:43:55;;;;;;;;;92.00;80.67;;;;;2.81;84.68;101312.38;6314014;20;3672245;-60
2023/02/15 07:46:24;;;;;;;;;93.00;82.33;;;;;3.08;85.16;101304.31;6283147;20;3650346;-61
2023/02/15 07:48:55;;;;;;;;;122.00;99.00;;;;;3.16;85.34;101308.69;6315742;20;3693037;-60
2023/02/15 07:51:26;;;;;;;;;114.25;100.25;;;;;3.02;85.62;101308.75;6280914;20;3709761;-60
2023/02/15 07:53:55;;;;;;;;;96.67;79.33;;;;;2.89;86.20;101305.28;6277962;20;3681581;-61
2023/02/15 07:56:25;;;;;;;;;94.33;76.33;;;;;2.99;86.81;101300.81;6284709;20;3670160;-60
2023/02/15 07:58:55;;;;;;;;;102.00;89.67;;;;;3.12;87.02;101307.81;6283377;20;3685704;-60
2023/02/15 08:01:38;;;;;;;;;95.33;79.33;;;;;3.33;87.27;101301.53;6281870;20;3669090;-61
2023/02/15 08:04:10;;;;;;;;;95.67;75.33;;;;;3.29;87.50;101300.66;6280514;20;3670068;-61
2023/02/15 08:06:40;;;;;;;;;93.33;75.33;;;;;3.25;87.86;101298.03;6282214;20;3678492;-60
2023/02/15 08:09:14;;;;;;;;;100.67;78.00;;;;;3.74;87.53;101292.41;6284430;20;3691988;-60
2023/02/15 08:11:42;;;;;;;;;78.50;65.00;;;;;3.24;88.21;101294.50;6279860;20;2508629;-65
2023/02/15 08:14:17;;;;;;;;;90.33;75.33;;;;;4.13;87.25;101288.53;6284155;20;3652313;-60
2023/02/15 08:16:59;;;;;;;;;96.67;82.33;;;;;4.29;85.28;101291.03;6279696;20;3675372;-60
2023/02/15 08:19:32;;;;;;;;;91.67;74.00;;;;;4.60;84.67;101287.13;6283026;20;3672136;-60
2023/02/15 08:22:06;;;;;;;;;90.67;74.33;;;;;4.61;84.13;101298.69;6284452;20;3665890;-60
2023/02/15 08:24:37;;;;;;;;;95.00;82.67;;;;;4.66;85.12;101295.94;6276616;20;3669069;-60
2023/02/15 08:27:10;;;;;;;;;100.67;84.00;;;;;4.90;83.31;101285.03;6282579;20;3681517;-60
2023/02/15 08:29:41;;;;;;;;;92.75;75.00;;;;;4.87;84.78;101285.06;6280631;20;4434608;-60
2023/02/15 08:32:13;;;;;;;;;103.00;86.33;;;;;5.03;84.14;101285.75;6312403;20;3695410;-60
2023/02/15 08:34:43;;;;;;;;;106.67;91.00;;;;;5.17;83.03;101282.91;6281850;20;3683586;-60
2023/02/15 08:37:12;;;;;;;;;101.67;88.00;;;;;5.05;84.64;101279.53;6281749;20;3685708;-60
2023/02/15 08:39:43;;;;;;;;;89.67;72.33;;;;;4.90;85.61;101284.13;6283625;20;3670044;-60
2023/02/15 08:42:13;;;;;;;;;95.33;79.67;;;;;5.47;85.14;101279.78;6281765;20;3685683;-60
2023/02/15 08:44:43;;;;;;;;;82.67;61.33;;;;;5.39;84.43;101281.69;6283482;20;3646176;-59
2023/02/15 08:47:12;;;;;;;;;84.67;60.67;;;;;5.49;84.31;101283.31;6312533;20;3648248;-60
2023/02/15 08:49:41;;;;;;;;;81.00;59.00;;;;;6.01;84.30;101283.44;6312186;20;3634756;-60
2023/02/15 08:52:11;;;;;;;;;74.33;55.33;;;;;6.31;82.88;101280.22;6281242;20;3636733;-60
2023/02/15 08:54:40;;;;;;;;;75.33;56.67;;;;;6.03;81.96;101285.16;6313183;20;3641969;-60
2023/02/15 08:57:10;;;;;;;;;74.00;57.33;;;;;5.74;83.50;101285.63;6313298;20;3637756;-60
2023/02/15 08:59:39;;;;;;;;;75.00;54.33;;;;;6.32;82.29;101282.00;6310567;20;3637755;-60
2023/02/15 09:02:11;;;;;;;;;78.75;58.00;;;;;6.82;80.62;101281.91;6311732;20;3647192;-59
2023/02/15 09:04:40;;;;;;;;;74.33;55.00;;;;;6.64;80.68;101280.50;6315746;20;3648192;-59
2023/02/15 09:07:10;;;;;;;;;65.33;50.33;;;;;6.41;80.22;101282.72;6277426;20;2874252;-60
2023/02/15 09:09:39;;;;;;;;;64.67;50.67;;;;;6.78;80.22;101289.09;6313677;20;2874335;-60
2023/02/15 09:12:09;;;;;;;;;63.00;46.33;;;;;6.47;80.21;101288.81;6314004;20;3635686;-60
2023/02/15 09:14:38;;;;;;;;;59.33;47.67;;;;;6.14;81.52;101284.97;6311743;20;3624244;-59
2023/02/15 09:17:08;;;;;;;;;62.67;48.67;;;;;6.02;82.74;101285.19;6313530;20;3628513;-59
2023/02/15 09:19:37;;;;;;;;;69.67;51.67;;;;;6.28;82.11;101277.59;6310002;20;3632686;-59
2023/02/15 09:22:07;;;;;;;;;62.00;48.67;;;;;6.73;82.34;101280.28;6314706;20;3629470;-59
2023/02/15 09:24:35;;;;;;;;;50.00;41.50;;;;;6.79;81.80;101266.84;6310017;20;2852406;-59
2023/02/15 09:27:05;;;;;;;;;61.33;45.00;;;;;6.97;79.55;101272.69;6281552;20;2886904;-59
2023/02/15 09:29:34;;;;;;;;;57.00;45.00;;;;;6.74;79.50;101276.72;6313367;20;2857670;-59
2023/02/15 09:32:03;;;;;;;;;56.50;45.00;;;;;6.65;79.30;101276.91;6278267;20;2855497;-59
2023/02/15 09:34:32;;;;;;;;;52.50;44.50;;;;;6.78;78.17;101261.53;6280587;20;2855467;-60
2023/02/15 09:37:06;;;;;;;;;59.33;46.00;;;;;6.89;78.79;101274.66;6280189;20;2872307;-60
2023/02/15 09:39:42;;;;;;;;;61.00;50.00;;;;;7.27;78.04;101271.16;6311115;20;3621110;-60
2023/02/15 09:43:07;;;;;;;;;67.00;49.67;;;;;7.03;78.17;101264.56;6312160;20;3643990;-59
2023/02/15 09:46:39;;;;;;;;;64.67;47.33;;;;;7.13;77.24;101262.56;6317423;20;3648311;-59
2023/02/15 09:50:14;;;;;;;;;59.33;42.67;;;;;7.29;78.63;101252.41;6281429;20;3642060;-59
2023/02/15 09:53:18;;;;;;;;;58.67;48.00;;;;;7.38;77.48;101246.88;6318428;20;2868138;-59
2023/02/15 09:56:45;;;;;;;;;59.33;47.67;;;;;7.15;78.76;101242.91;6317684;20;3620058;-59
2023/02/15 09:59:35;;;;;;;;;60.67;47.00;;;;;7.31;78.13;101245.25;6311623;20;3619020;-60
2023/02/15 10:03:11;;;;;;;;;62.67;47.00;;;;;7.34;78.06;101237.16;6314624;20;3652467;-59
2023/02/15 10:06:31;;;;;;;;;64.00;49.67;;;;;7.26;77.82;101238.19;6282798;20;3639834;-60
2023/02/15 10:09:30;;;;;;;;;56.33;42.33;;;;;7.77;77.57;101230.78;6318833;20;2869026;-59
2023/02/15 10:12:54;;;;;;;;;54.00;42.00;;;;;8.20;73.89;101229.66;6318172;20;2863193;-60
2023/02/15 10:15:53;;;;;;;;;59.67;43.67;;;;;8.26;73.40;101226.81;6284608;20;3622153;-59
2023/02/15 10:19:05;;;;;;;;;48.00;36.00;;;;;8.02;73.46;101228.34;6313553;20;3613846;-59
2023/02/15 10:21:46;;;;;;;;;49.00;37.50;;;;;7.84;73.82;101229.69;6311865;20;2848302;-59
2023/02/15 10:24:24;;;;;;;;;49.50;42.00;;;;;7.83;74.74;101233.28;6285633;20;2853536;-59
2023/02/15 10:27:15;;;;;;;;;52.00;41.33;;;;;8.26;73.58;101232.16;6288276;20;2865093;-59
2023/02/15 10:29:56;;;;;;;;;47.00;41.00;;;;;8.42;72.88;101232.66;6314024;20;2857695;-59
2023/02/15 10:32:29;;;;;;;;;55.50;41.00;;;;;8.66;71.66;101228.41;6285211;20;2865989;-59
2023/02/15 10:35:14;;;;;;;;;57.00;44.33;;;;;7.95;73.92;101224.94;6284066;20;2870219;-60
2023/02/15 10:38:25;;;;;;;;;55.67;41.33;;;;;8.43;72.38;101218.38;6310565;20;3615077;-60
2023/02/15 10:41:08;;;;;;;;;55.33;41.00;;;;;8.09;73.77;101219.25;6313416;20;3607544;-60
2023/02/15 10:44:43;;;;;;;;;65.00;50.00;;;;;8.44;71.35;101220.09;6315567;20;3620105;-60
2023/02/15 10:47:48;;;;;;;;;57.00;43.67;;;;;8.64;71.42;101223.09;6316400;20;2865966;-59
2023/02/15 10:50:56;;;;;;;;;62.00;47.00;;;;;8.56;71.53;101219.78;6317633;20;3611733;-59
2023/02/15 10:54:07;;;;;;;;;52.00;44.00;;;;;8.34;71.52;101208.75;6316707;20;2859704;-60
2023/02/15 10:56:53;;;;;;;;;51.50;42.50;;;;;8.82;69.81;101213.66;6284267;20;2855550;-59
2023/02/15 10:59:49;;;;;;;;;46.50;38.50;;;;;8.70;69.19;101211.34;6285308;20;2859657;-59
2023/02/15 11:03:17;;;;;;;;;53.00;40.50;;;;;8.65;69.91;101198.06;6286001;20;2869083;-59
2023/02/15 11:06:13;;;;;;;;;59.00;42.67;;;;;8.92;69.00;101201.72;6283958;20;2866013;-59
2023/02/15 11:08:50;;;;;;;;;55.00;44.00;;;;;8.43;68.47;101199.63;6313439;20;2847152;-59
2023/02/15 11:11:34;;;;;;;;;57.33;44.67;;;;;8.43;69.43;101200.50;6282377;20;2867072;-59
2023/02/15 11:14:17;;;;;;;;;52.67;41.00;;;;;8.26;70.29;101194.69;6313037;20;3606524;-59
2023/02/15 11:16:53;;;;;;;;;54.50;42.50;;;;;8.73;71.03;101196.03;6314247;20;2851420;-59
2023/02/15 11:19:32;;;;;;;;;56.33;42.33;;;;;8.79;69.84;101187.84;6282055;20;2871179;-59
2023/02/15 11:22:06;;;;;;;;;51.50;43.00;;;;;8.42;70.29;101185.34;6314148;20;2862779;-59
2023/02/15 11:24:46;;;;;;;;;57.00;45.33;;;;;8.83;71.01;101185.94;6280588;20;2861796;-59
2023/02/15 11:27:32;;;;;;;;;57.33;46.67;;;;;9.13;69.32;101180.56;6307228;20;3619012;-59
2023/02/15 11:30:15;;;;;;;;;63.67;46.33;;;;;9.25;69.08;101176.63;6314783;20;3631573;-59
2023/02/15 11:32:51;;;;;;;;;57.33;46.00;;;;;9.04;68.97;101175.50;6314801;20;3618005;-59
2023/02/15 11:35:37;;;;;;;;;58.00;44.67;;;;;8.89;69.97;101172.34;6315895;20;2862769;-60
2023/02/15 11:38:20;;;;;;;;;62.00;44.67;;;;;8.86;69.44;101164.41;6312048;20;3619034;-59
2023/02/15 11:41:24;;;;;;;;;48.67;37.33;;;;;9.21;68.71;101163.28;6311137;20;2863960;-59
2023/02/15 11:44:06;;;;;;;;;53.00;44.00;;;;;9.16;70.18;101167.06;6314054;20;2846128;-59
2023/02/15 11:46:37;;;;;;;;;53.50;44.50;;;;;9.39;68.32;101169.00;6310083;20;2854651;-59
2023/02/15 11:49:37;;;;;;;;;59.33;46.67;;;;;9.44;67.60;101154.50;6280289;20;3631620;-59
2023/02/15 11:52:14;;;;;;;;;54.33;42.33;;;;;9.28;68.62;101155.94;6311966;20;2859721;-59
2023/02/15 11:54:50;;;;;;;;;51.00;42.33;;;;;8.92;69.59;101150.81;6309392;20;2861802;-59
2023/02/15 11:57:37;;;;;;;;;51.00;42.00;;;;;9.23;68.39;101144.50;6315010;20;2850296;-59
2023/02/15 12:00:36;;;;;;;;;56.33;45.00;;;;;9.00;68.82;101135.41;6313410;20;3613822;-59